Huvudsida
METAR-TAF:

METAR-TAF

Flygplatser :

Wake Island, USA

latitud: 19-17N, longitud: 166-39E, höjd: 4 m

Aktuellt väderrapport

Denna rapport gjordes för 1 timme och 13 minuter sedan, klockan 20:58 UTC
Stilla vind
Temperatur 27°C
Fuktighet 89%
Tryck 1016 hPa
Sikt 10 km eller mer
Klar himmel

METAR: PWAK 192058Z AUTO 00000KT 9999 CLR 27/25 A3000 RMK AO2 SLP165 T02650245 52024 $

Tid: 10:11 (22:11 UTC)

Väderprognos

Denna rapport gjordes för 11 minuter sedan, klockan 22:00 UTC
Prognos gäller från 19 kl. 22 UTC till 21 kl. 04 UTC
Vind 9 kt från ost/sydost
Sikt 10 km eller mer
Spridda moln på en höjd av 2000 ft
Blir
från 20 kl. 00 UTC till 20 kl. 01 UTC
Vind 12 kt från ost/sydost
Sikt 10 km eller mer
Spridda moln på en höjd av 2000 ft

TAF: PWAK 192200Z 1922/2104 11009KT 9999 SCT020 QNH2998INS BECMG 2000/2001 11012KT 9999 SCT020 QNH2994INS TX29/2002Z TN24/2018Z FOR MIL USE ONLY

Aktuella väderrapporter och prognoser från 4000 flygplatser (METAR- och TAF-rapporter).

De tillgängliga stationerna syns som gula och röda prickar på kartan.

För musen över prickarna för att se namnen på stationerna.

Klicka sedan för att få väderrapporter och prognoser.

För att ändra kartan: Klicka på de gröna knapparna med ett svart kors på för att zooma in; den gröna knappen med ett streck på för att zooma ut; eller på de gröna pilarna för angränsande kartor.


METAR-TAF: